createdAt,value
2022-08-25T00:02:03.172Z,96995.59
2022-08-25T00:04:33.719Z,97002.97
2022-08-25T00:07:03.361Z,97002.50
2022-08-25T00:09:32.537Z,97000.47
2022-08-25T00:11:59.988Z,96988.97
2022-08-25T00:14:30.689Z,96992.09
2022-08-25T00:16:58.274Z,96994.09
2022-08-25T00:19:29.392Z,96993.91
2022-08-25T00:21:56.645Z,96999.25
2022-08-25T00:24:24.759Z,96998.22
2022-08-25T00:26:56.829Z,96995.94
2022-08-25T00:29:26.426Z,96992.41
2022-08-25T00:31:55.124Z,96987.31
2022-08-25T00:34:34.701Z,96991.81
2022-08-25T00:37:03.358Z,96990.16
2022-08-25T00:39:30.875Z,96986.06
2022-08-25T00:41:59.132Z,96976.59
2022-08-25T00:44:28.697Z,96969.63
2022-08-25T00:46:58.644Z,96967.94
2022-08-25T00:49:41.530Z,96965.91
2022-08-25T00:52:16.742Z,96958.53
2022-08-25T00:54:50.419Z,96966.75
2022-08-25T00:57:33.900Z,96958.31
2022-08-25T01:00:08.405Z,96968.81
2022-08-25T01:02:35.803Z,96975.56
2022-08-25T01:05:03.596Z,96976.56
2022-08-25T01:07:30.699Z,96973.72
2022-08-25T01:09:58.041Z,96977.38
2022-08-25T01:12:25.108Z,96977.19
2022-08-25T01:14:53.903Z,96976.16
2022-08-25T01:17:22.105Z,96966.34
2022-08-25T01:19:49.197Z,96966.31
2022-08-25T01:22:16.904Z,96953.63
2022-08-25T01:25:14.452Z,96956.66
2022-08-25T01:27:41.615Z,96960.09
2022-08-25T01:30:09.298Z,96956.00
2022-08-25T01:32:36.542Z,96954.56
2022-08-25T01:35:04.125Z,96954.13
2022-08-25T01:37:35.180Z,96948.16
2022-08-25T01:40:02.519Z,96954.72
2022-08-25T01:42:43.922Z,96951.44
2022-08-25T01:45:11.507Z,96946.03
2022-08-25T01:47:38.722Z,96943.00
2022-08-25T01:50:07.546Z,96947.28
2022-08-25T01:52:58.349Z,96936.41
2022-08-25T01:55:25.747Z,96938.56
2022-08-25T01:57:53.834Z,96940.63
2022-08-25T02:00:23.206Z,96934.28
2022-08-25T02:02:52.241Z,96928.16
2022-08-25T02:05:23.483Z,96929.53
2022-08-25T02:07:51.190Z,96916.47
2022-08-25T02:10:18.207Z,96907.78
2022-08-25T02:12:45.433Z,96907.41
2022-08-25T02:15:12.708Z,96899.97
2022-08-25T02:17:39.846Z,96905.13
2022-08-25T02:20:11.073Z,96913.91
2022-08-25T02:22:38.555Z,96898.53
2022-08-25T02:25:07.889Z,96911.41
2022-08-25T02:27:35.739Z,96887.63
2022-08-25T02:30:04.545Z,96906.69
2022-08-25T02:32:31.729Z,96913.00
2022-08-25T02:34:58.761Z,96909.28
2022-08-25T02:37:26.110Z,96917.84
2022-08-25T02:39:53.323Z,96918.91
2022-08-25T02:42:22.197Z,96923.59
2022-08-25T02:44:49.653Z,96912.28
2022-08-25T02:47:17.127Z,96900.47
2022-08-25T02:49:45.020Z,96908.47
2022-08-25T02:52:12.050Z,96899.91
2022-08-25T02:54:39.213Z,96905.59
2022-08-25T02:57:06.365Z,96892.66
2022-08-25T02:59:33.638Z,96896.97
2022-08-25T03:02:00.632Z,96899.41
2022-08-25T03:04:29.219Z,96902.72
2022-08-25T03:06:56.582Z,96899.78
2022-08-25T03:09:23.879Z,96903.84
2022-08-25T03:11:50.901Z,96912.94
2022-08-25T03:14:18.307Z,96912.50
2022-08-25T03:16:46.475Z,96914.50
2022-08-25T03:19:14.546Z,96905.09
2022-08-25T03:21:41.760Z,96913.34
2022-08-25T03:24:09.212Z,96915.00
2022-08-25T03:26:54.481Z,96907.44
2022-08-25T03:29:27.012Z,96918.75
2022-08-25T03:31:55.566Z,96909.94
2022-08-25T03:34:23.387Z,96904.81
2022-08-25T03:36:52.042Z,96912.69
2022-08-25T03:39:21.264Z,96902.84
2022-08-25T03:41:48.422Z,96903.22
2022-08-25T03:44:16.636Z,96897.25
2022-08-25T03:46:46.756Z,96903.88
2022-08-25T03:49:19.888Z,96915.53
2022-08-25T03:51:49.487Z,96904.91
2022-08-25T03:54:19.448Z,96910.66
2022-08-25T03:56:46.557Z,96918.00
2022-08-25T03:59:13.861Z,96921.94
2022-08-25T04:01:44.213Z,96917.50
2022-08-25T04:04:13.521Z,96928.56
2022-08-25T04:06:42.209Z,96936.28
2022-08-25T04:09:09.837Z,96933.63
2022-08-25T04:11:37.684Z,96921.78
2022-08-25T04:14:05.145Z,96932.84
2022-08-25T04:16:35.342Z,96936.41
2022-08-25T04:19:06.201Z,96929.16
2022-08-25T04:21:33.534Z,96928.41
2022-08-25T04:24:00.857Z,96929.66
2022-08-25T04:26:32.387Z,96931.28
2022-08-25T04:29:00.918Z,96920.06
2022-08-25T04:31:33.656Z,96927.66
2022-08-25T04:34:04.019Z,96933.41
2022-08-25T04:36:41.648Z,96926.25
2022-08-25T04:39:09.190Z,96924.66
2022-08-25T04:41:38.537Z,96931.25
2022-08-25T04:44:06.066Z,96922.44
2022-08-25T04:46:34.757Z,96915.47
2022-08-25T04:49:03.557Z,96914.69
2022-08-25T04:51:36.318Z,96911.81
2022-08-25T04:54:06.296Z,96920.44
2022-08-25T04:56:34.305Z,96911.47
2022-08-25T04:59:07.386Z,96911.25
2022-08-25T05:01:35.349Z,96918.66
2022-08-25T05:04:04.887Z,96919.25
2022-08-25T05:06:32.056Z,96903.38
2022-08-25T05:09:00.063Z,96904.00
2022-08-25T05:11:27.741Z,96902.31
2022-08-25T05:13:55.558Z,96902.38
2022-08-25T05:16:25.535Z,96894.28
2022-08-25T05:18:53.513Z,96896.66
2022-08-25T05:21:24.490Z,96911.34
2022-08-25T05:23:57.036Z,96919.78
2022-08-25T05:26:26.721Z,96918.94
2022-08-25T05:28:55.463Z,96920.22
2022-08-25T05:31:24.344Z,96924.56
2022-08-25T05:33:52.408Z,96924.88
2022-08-25T05:36:20.468Z,96925.31
2022-08-25T05:38:48.020Z,96926.53
2022-08-25T05:41:16.806Z,96931.63
2022-08-25T05:43:46.205Z,96936.81
2022-08-25T05:46:13.903Z,96930.47
2022-08-25T05:48:40.924Z,96940.13
2022-08-25T05:51:13.161Z,96938.06
2022-08-25T05:53:43.146Z,96938.91
2022-08-25T05:56:10.491Z,96934.94
2022-08-25T05:58:38.121Z,96930.16
2022-08-25T06:01:23.931Z,96934.59
2022-08-25T06:03:54.823Z,96929.47
2022-08-25T06:06:23.607Z,96922.44
2022-08-25T06:08:51.697Z,96918.97
2022-08-25T06:11:19.939Z,96915.91
2022-08-25T06:13:47.218Z,96910.03
2022-08-25T06:16:14.570Z,96911.44
2022-08-25T06:18:41.766Z,96911.88
2022-08-25T06:21:13.504Z,96914.44
2022-08-25T06:23:41.371Z,96919.19
2022-08-25T06:26:13.170Z,96908.88
2022-08-25T06:28:47.982Z,96911.34
2022-08-25T06:31:15.658Z,96904.75
2022-08-25T06:33:43.002Z,96904.84
2022-08-25T06:36:10.225Z,96903.63
2022-08-25T06:38:37.368Z,96917.22
2022-08-25T06:41:05.627Z,96906.56
2022-08-25T06:43:34.734Z,96912.03
2022-08-25T06:46:17.117Z,96910.88
2022-08-25T06:48:44.423Z,96915.44
2022-08-25T06:51:14.331Z,96911.81
2022-08-25T06:53:42.216Z,96911.38
2022-08-25T06:56:10.268Z,96910.00
2022-08-25T06:58:38.490Z,96913.16
2022-08-25T07:01:20.335Z,96922.84
2022-08-25T07:03:48.899Z,96917.06
2022-08-25T07:06:20.063Z,96931.91
2022-08-25T07:08:47.616Z,96935.81
2022-08-25T07:11:17.342Z,96924.81
2022-08-25T07:13:45.881Z,96926.44
2022-08-25T07:16:15.654Z,96928.06
2022-08-25T07:18:45.467Z,96922.00
2022-08-25T07:21:14.232Z,96925.56
2022-08-25T07:23:42.038Z,96933.56
2022-08-25T07:29:11.634Z,96933.09
2022-08-25T07:31:39.533Z,96927.94
2022-08-25T07:34:26.230Z,96928.59
2022-08-25T07:36:55.031Z,96933.84
2022-08-25T07:39:23.167Z,96941.00
2022-08-25T07:41:52.419Z,96928.66
2022-08-25T07:44:21.407Z,96930.06
2022-08-25T07:46:50.336Z,96935.84
2022-08-25T07:49:23.506Z,96931.56
2022-08-25T07:52:05.457Z,96929.19
2022-08-25T07:54:35.431Z,96932.66
2022-08-25T07:57:06.688Z,96928.66
2022-08-25T07:59:39.317Z,96938.41
2022-08-25T08:02:08.444Z,96931.25
2022-08-25T08:04:37.839Z,96932.94
2022-08-25T08:07:12.215Z,96923.97
2022-08-25T08:09:39.558Z,96925.66
2022-08-25T08:12:07.024Z,96921.13
2022-08-25T08:14:34.749Z,96923.34
2022-08-25T08:17:07.352Z,96920.59
2022-08-25T08:19:35.752Z,96916.03
2022-08-25T08:22:04.626Z,96915.53
2022-08-25T08:24:54.534Z,96906.84
2022-08-25T08:27:19.843Z,96906.25
2022-08-25T08:29:49.513Z,96900.69
2022-08-25T08:32:18.683Z,96907.41
2022-08-25T08:34:51.294Z,96901.66
2022-08-25T08:37:20.306Z,96905.97
2022-08-25T08:39:51.619Z,96910.81
2022-08-25T08:42:30.769Z,96913.50
2022-08-25T08:45:09.522Z,96908.50
2022-08-25T08:48:10.764Z,96904.22
2022-08-25T08:50:57.608Z,96912.81
2022-08-25T08:54:05.754Z,96914.84
2022-08-25T08:56:47.928Z,96899.97
2022-08-25T08:59:29.877Z,96904.59
2022-08-25T09:02:03.433Z,96901.78
2022-08-25T09:04:41.024Z,96910.09
2022-08-25T09:07:12.049Z,96902.16
2022-08-25T09:09:42.468Z,96897.66
2022-08-25T09:12:28.380Z,96894.63
2022-08-25T09:15:12.873Z,96882.94
2022-08-25T09:18:05.608Z,96879.00
2022-08-25T09:20:59.897Z,96865.44
2022-08-25T09:23:52.273Z,96862.63
2022-08-25T09:26:45.781Z,96870.25
2022-08-25T09:29:22.698Z,96870.06
2022-08-25T09:31:54.206Z,96869.34
2022-08-25T09:34:25.096Z,96857.06
2022-08-25T09:36:53.428Z,96851.22
2022-08-25T09:39:21.555Z,96859.34
2022-08-25T09:41:52.261Z,96855.44
2022-08-25T09:44:31.932Z,96863.41
2022-08-25T09:47:20.129Z,96863.72
2022-08-25T09:50:04.534Z,96870.47
2022-08-25T09:52:41.476Z,96864.44
2022-08-25T09:55:08.862Z,96856.31
2022-08-25T09:57:43.111Z,96854.97
2022-08-25T10:00:22.514Z,96858.41
2022-08-25T10:03:12.041Z,96858.53
2022-08-25T10:05:41.897Z,96854.56
2022-08-25T10:08:14.789Z,96847.63
2022-08-25T10:10:55.977Z,96841.28
2022-08-25T10:13:44.621Z,96850.06
2022-08-25T10:16:27.012Z,96841.97
2022-08-25T10:19:28.858Z,96840.16
2022-08-25T10:22:05.838Z,96836.06
2022-08-25T10:24:33.835Z,96841.47
2022-08-25T10:27:19.712Z,96839.84
2022-08-25T10:30:19.409Z,96830.56
2022-08-25T10:32:52.125Z,96831.00
2022-08-25T10:35:31.700Z,96827.31
2022-08-25T10:38:27.292Z,96825.06
2022-08-25T10:41:27.097Z,96823.22
2022-08-25T10:44:06.015Z,96833.16
2022-08-25T10:46:57.345Z,96832.63
2022-08-25T10:49:45.257Z,96833.69
2022-08-25T10:52:29.417Z,96826.56
2022-08-25T10:55:17.947Z,96827.56
2022-08-25T10:58:06.395Z,96833.66
2022-08-25T11:01:14.738Z,96833.59
2022-08-25T11:04:07.735Z,96829.94
2022-08-25T11:06:52.706Z,96828.41
2022-08-25T11:09:31.300Z,96834.53
2022-08-25T11:12:04.755Z,96833.47
2022-08-25T11:14:40.587Z,96830.59
2022-08-25T11:17:17.024Z,96813.16
2022-08-25T11:19:48.680Z,96815.97
2022-08-25T11:22:21.710Z,96818.47
2022-08-25T11:25:21.675Z,96819.25
2022-08-25T11:28:06.952Z,96808.81
2022-08-25T11:30:34.777Z,96805.09
2022-08-25T11:33:02.247Z,96804.59
2022-08-25T11:35:35.939Z,96800.03
2022-08-25T11:38:42.177Z,96798.44
2022-08-25T11:41:35.862Z,96800.03
2022-08-25T11:44:35.219Z,96803.28
2022-08-25T11:47:21.460Z,96799.72
2022-08-25T11:50:08.741Z,96805.34
2022-08-25T11:52:38.598Z,96803.16
2022-08-25T11:55:37.043Z,96808.09
2022-08-25T11:58:34.540Z,96794.56
2022-08-25T12:01:04.168Z,96788.03
2022-08-25T12:03:37.331Z,96783.72
2022-08-25T12:06:18.759Z,96788.59
2022-08-25T12:09:01.459Z,96785.81
2022-08-25T12:11:48.542Z,96787.78
2022-08-25T12:14:25.029Z,96783.19
2022-08-25T12:16:55.706Z,96779.97
2022-08-25T12:19:35.019Z,96778.34
2022-08-25T12:22:05.043Z,96772.38
2022-08-25T12:24:48.282Z,96764.22
2022-08-25T12:27:33.809Z,96777.25
2022-08-25T12:30:20.761Z,96765.63
2022-08-25T12:33:09.407Z,96776.22
2022-08-25T12:35:59.199Z,96777.25
2022-08-25T12:38:44.113Z,96780.72
2022-08-25T12:41:27.175Z,96785.56
2022-08-25T12:44:40.600Z,96780.66
2022-08-25T12:47:32.313Z,96787.94
2022-08-25T12:50:33.577Z,96785.69
2022-08-25T12:53:11.474Z,96787.16
2022-08-25T12:55:44.437Z,96785.28
2022-08-25T12:58:12.500Z,96782.59
2022-08-25T13:01:17.468Z,96766.44
2022-08-25T13:04:21.389Z,96770.50
2022-08-25T13:07:16.298Z,96766.75
2022-08-25T13:10:01.325Z,96765.72
2022-08-25T13:12:34.535Z,96764.91
2022-08-25T13:15:01.482Z,96763.00
2022-08-25T13:17:33.941Z,96754.13
2022-08-25T13:20:29.356Z,96759.34
2022-08-25T13:23:04.017Z,96752.03
2022-08-25T13:25:33.442Z,96744.19
2022-08-25T13:28:11.039Z,96736.84
2022-08-25T13:30:40.030Z,96739.28
2022-08-25T13:33:21.827Z,96730.31
2022-08-25T13:36:12.001Z,96718.13
2022-08-25T13:38:40.582Z,96721.06
2022-08-25T13:41:09.790Z,96727.28
2022-08-25T13:43:38.966Z,96723.44
2022-08-25T13:46:07.097Z,96723.97
2022-08-25T13:48:34.088Z,96716.94
2022-08-25T13:51:19.673Z,96718.59
2022-08-25T13:53:51.881Z,96720.75
2022-08-25T13:56:38.771Z,96711.28
2022-08-25T13:59:33.829Z,96704.50
2022-08-25T14:02:01.197Z,96695.81
2022-08-25T14:04:32.278Z,96705.00
2022-08-25T14:07:27.500Z,96699.06
2022-08-25T14:10:32.674Z,96706.69
2022-08-25T14:13:16.788Z,96705.03
2022-08-25T14:15:46.492Z,96695.31
2022-08-25T14:18:26.992Z,96688.56
2022-08-25T14:20:56.513Z,96685.03
2022-08-25T14:23:30.226Z,96681.25
2022-08-25T14:26:09.368Z,96687.47
2022-08-25T14:28:36.519Z,96682.84
2022-08-25T14:31:13.823Z,96680.16
2022-08-25T14:33:54.091Z,96686.13
2022-08-25T14:36:21.569Z,96678.75
2022-08-25T14:38:54.882Z,96681.75
2022-08-25T14:41:24.832Z,96676.34
2022-08-25T14:43:51.877Z,96673.66
2022-08-25T14:46:26.437Z,96672.84
2022-08-25T14:49:01.098Z,96673.66
2022-08-25T14:51:32.957Z,96673.66
2022-08-25T14:54:03.467Z,96670.94
2022-08-25T14:56:32.196Z,96661.19
2022-08-25T14:58:59.898Z,96673.13
2022-08-25T15:01:29.964Z,96677.97
2022-08-25T15:04:17.591Z,96679.34
2022-08-25T15:06:45.457Z,96685.59
2022-08-25T15:09:16.617Z,96687.50
2022-08-25T15:11:47.273Z,96681.28
2022-08-25T15:14:28.835Z,96679.59
2022-08-25T15:17:01.880Z,96672.84
2022-08-25T15:19:29.531Z,96672.59
2022-08-25T15:21:57.707Z,96676.38
2022-08-25T15:24:27.322Z,96678.03
2022-08-25T15:27:04.098Z,96666.66
2022-08-25T15:29:34.956Z,96674.53
2022-08-25T15:32:10.215Z,96673.09
2022-08-25T15:34:37.726Z,96668.25
2022-08-25T15:37:14.096Z,96665.50
2022-08-25T15:39:44.538Z,96657.38
2022-08-25T15:42:12.440Z,96660.63
2022-08-25T15:44:40.569Z,96665.50
2022-08-25T15:47:12.581Z,96664.66
2022-08-25T15:49:40.035Z,96658.44
2022-08-25T15:52:07.114Z,96649.41
2022-08-25T15:54:34.289Z,96659.66
2022-08-25T15:57:03.443Z,96650.69
2022-08-25T15:59:36.028Z,96659.31
2022-08-25T16:02:15.051Z,96658.16
2022-08-25T16:04:43.046Z,96659.69
2022-08-25T16:07:13.187Z,96661.75
2022-08-25T16:09:41.747Z,96667.63
2022-08-25T16:12:09.092Z,96668.34
2022-08-25T16:14:38.397Z,96661.53
2022-08-25T16:17:06.412Z,96665.72
2022-08-25T16:19:34.186Z,96664.31
2022-08-25T16:22:08.721Z,96665.00
2022-08-25T16:24:38.652Z,96663.81
2022-08-25T16:27:11.436Z,96663.19
2022-08-25T16:29:41.872Z,96656.63
2022-08-25T16:32:09.966Z,96661.06
2022-08-25T16:34:37.737Z,96655.38
2022-08-25T16:37:06.775Z,96653.09
2022-08-25T16:39:33.867Z,96649.75
2022-08-25T16:42:00.988Z,96657.16
2022-08-25T16:44:28.316Z,96659.53
2022-08-25T16:46:56.040Z,96660.72
2022-08-25T16:49:24.498Z,96662.28
2022-08-25T16:51:57.813Z,96663.25
2022-08-25T16:54:45.236Z,96663.44
2022-08-25T16:57:12.766Z,96656.47
2022-08-25T16:59:39.931Z,96663.19
2022-08-25T17:02:07.132Z,96659.78
2022-08-25T17:04:40.674Z,96677.78
2022-08-25T17:07:07.985Z,96676.47
2022-08-25T17:09:35.199Z,96672.97
2022-08-25T17:12:02.326Z,96674.41
2022-08-25T17:14:29.538Z,96680.09
2022-08-25T17:16:57.891Z,96674.03
2022-08-25T17:19:28.143Z,96676.97
2022-08-25T17:21:55.394Z,96679.25
2022-08-25T17:24:29.427Z,96680.22
2022-08-25T17:26:59.170Z,96678.41
2022-08-25T17:29:26.801Z,96689.88
2022-08-25T17:31:54.010Z,96674.44
2022-08-25T17:34:23.439Z,96685.78
2022-08-25T17:36:51.330Z,96693.38
2022-08-25T17:39:22.705Z,96693.72
2022-08-25T17:41:51.803Z,96696.88
2022-08-25T17:44:21.050Z,96698.25
2022-08-25T17:46:48.887Z,96702.91
2022-08-25T17:49:17.363Z,96696.94
2022-08-25T17:51:45.381Z,96702.59
2022-08-25T17:54:12.874Z,96706.44
2022-08-25T17:56:39.904Z,96704.16
2022-08-25T17:59:07.273Z,96708.88
2022-08-25T18:01:40.550Z,96701.44
2022-08-25T18:04:15.622Z,96710.09
2022-08-25T18:06:45.240Z,96704.25
2022-08-25T18:09:13.046Z,96709.53
2022-08-25T18:11:40.655Z,96710.06
2022-08-25T18:14:08.039Z,96714.66
2022-08-25T18:16:38.732Z,96717.84
2022-08-25T18:19:06.588Z,96711.53
2022-08-25T18:21:37.293Z,96711.38
2022-08-25T18:24:04.630Z,96712.41
2022-08-25T18:26:31.793Z,96719.41
2022-08-25T18:28:59.858Z,96726.53
2022-08-25T18:31:27.755Z,96722.06
2022-08-25T18:33:55.077Z,96725.94
2022-08-25T18:36:22.299Z,96725.34
2022-08-25T18:39:08.153Z,96730.41
2022-08-25T18:41:38.557Z,96726.44
2022-08-25T18:46:35.707Z,96739.16
2022-08-25T18:49:03.231Z,96740.47
2022-08-25T18:51:33.075Z,96742.19
2022-08-25T18:54:01.366Z,96744.50
2022-08-25T18:56:28.987Z,96743.63
2022-08-25T18:58:56.666Z,96740.69
2022-08-25T19:01:24.209Z,96744.00
2022-08-25T19:04:41.129Z,96741.94
2022-08-25T19:07:09.305Z,96750.19
2022-08-25T19:09:36.848Z,96742.81
2022-08-25T19:12:05.274Z,96751.13
2022-08-25T19:14:32.469Z,96761.75
2022-08-25T19:17:00.985Z,96757.44
2022-08-25T19:19:28.463Z,96759.53
2022-08-25T19:21:55.982Z,96763.44
2022-08-25T19:24:23.101Z,96757.88
2022-08-25T19:26:54.446Z,96760.97
2022-08-25T19:29:23.718Z,96774.53
2022-08-25T19:31:51.740Z,96765.91
2022-08-25T19:34:30.372Z,96771.66
2022-08-25T19:36:59.662Z,96772.72
2022-08-25T19:39:30.608Z,96778.47
2022-08-25T19:41:58.108Z,96788.78
2022-08-25T19:44:26.573Z,96796.38
2022-08-25T19:46:56.515Z,96792.25
2022-08-25T19:49:31.827Z,96784.31
2022-08-25T19:52:02.506Z,96782.00
2022-08-25T19:54:34.665Z,96768.38
2022-08-25T19:57:03.416Z,96761.13
2022-08-25T19:59:34.378Z,96756.63
2022-08-25T20:02:15.381Z,96752.75
2022-08-25T20:04:49.313Z,96747.03
2022-08-25T20:07:19.358Z,96757.72
2022-08-25T20:09:47.827Z,96753.59
2022-08-25T20:14:49.539Z,96741.72
2022-08-25T20:17:24.252Z,96753.25
2022-08-25T20:19:55.522Z,96763.91
2022-08-25T20:22:26.114Z,96762.66
2022-08-25T20:24:57.907Z,96745.03
2022-08-25T20:27:33.396Z,96748.78
2022-08-25T20:30:02.691Z,96740.19
2022-08-25T20:32:31.640Z,96744.28
2022-08-25T20:34:58.714Z,96753.56
2022-08-25T20:37:26.092Z,96754.59
2022-08-25T20:39:53.365Z,96757.53
2022-08-25T20:42:20.911Z,96748.09
2022-08-25T20:44:48.209Z,96748.47
2022-08-25T20:47:15.632Z,96744.59
2022-08-25T20:49:46.509Z,96762.50
2022-08-25T20:52:14.060Z,96742.81
2022-08-25T20:54:46.925Z,96744.84
2022-08-25T20:57:14.249Z,96750.81
2022-08-25T20:59:41.361Z,96747.56
2022-08-25T21:02:08.766Z,96742.84
2022-08-25T21:04:37.272Z,96748.38
2022-08-25T21:07:06.644Z,96741.25
2022-08-25T21:09:36.104Z,96744.56
2022-08-25T21:12:07.418Z,96754.63
2022-08-25T21:14:38.607Z,96746.22
2022-08-25T21:17:06.264Z,96748.31
2022-08-25T21:19:33.722Z,96747.50
2022-08-25T21:22:01.078Z,96740.69
2022-08-25T21:24:29.546Z,96743.78
2022-08-25T21:26:59.966Z,96742.13
2022-08-25T21:29:30.376Z,96737.22
2022-08-25T21:32:01.851Z,96743.78
2022-08-25T21:34:29.581Z,96742.97
2022-08-25T21:36:59.242Z,96747.94
2022-08-25T21:39:28.296Z,96749.97
2022-08-25T21:42:00.111Z,96748.94
2022-08-25T21:44:28.150Z,96745.88
2022-08-25T21:46:55.526Z,96744.66
2022-08-25T21:49:24.581Z,96744.91
2022-08-25T21:52:00.087Z,96747.94
2022-08-25T21:54:29.062Z,96740.75
2022-08-25T21:57:00.027Z,96747.53
2022-08-25T21:59:37.155Z,96740.34
2022-08-25T22:02:07.880Z,96741.38
2022-08-25T22:04:38.887Z,96751.88
2022-08-25T22:07:08.470Z,96754.94
2022-08-25T22:09:36.414Z,96754.31
2022-08-25T22:12:04.573Z,96743.03
2022-08-25T22:14:32.648Z,96746.34
2022-08-25T22:17:00.278Z,96743.03
2022-08-25T22:19:27.509Z,96738.75
2022-08-25T22:21:55.638Z,96744.69
2022-08-25T22:24:27.954Z,96746.13
2022-08-25T22:26:56.485Z,96752.50
2022-08-25T22:29:25.370Z,96765.19
2022-08-25T22:32:00.715Z,96768.69
2022-08-25T22:34:32.804Z,96755.34
2022-08-25T22:37:04.775Z,96754.09
2022-08-25T22:39:34.252Z,96758.22
2022-08-25T22:42:02.979Z,96761.72
2022-08-25T22:44:30.854Z,96758.22
2022-08-25T22:46:57.958Z,96762.72
2022-08-25T22:49:29.116Z,96765.41
2022-08-25T22:51:57.408Z,96759.03
2022-08-25T22:54:25.374Z,96755.75
2022-08-25T22:56:53.636Z,96743.44
2022-08-25T22:59:22.111Z,96756.19
2022-08-25T23:01:50.158Z,96744.69
2022-08-25T23:04:17.710Z,96741.00
2022-08-25T23:06:46.146Z,96737.09
2022-08-25T23:09:14.548Z,96747.34
2022-08-25T23:11:43.301Z,96732.38
2022-08-25T23:14:11.589Z,96724.16
2022-08-25T23:16:41.684Z,96729.91
2022-08-25T23:19:10.892Z,96725.00
2022-08-25T23:21:59.141Z,96729.72
2022-08-25T23:24:29.352Z,96723.34
2022-08-25T23:26:59.584Z,96728.66
2022-08-25T23:29:28.829Z,96724.59
2022-08-25T23:31:57.104Z,96722.09
2022-08-25T23:34:25.525Z,96721.50
2022-08-25T23:36:53.001Z,96725.63
2022-08-25T23:39:21.690Z,96728.25
2022-08-25T23:41:49.503Z,96724.56
2022-08-25T23:44:17.346Z,96729.88
2022-08-25T23:46:45.284Z,96720.88
2022-08-25T23:49:14.942Z,96722.72
2022-08-25T23:51:47.586Z,96723.75
2022-08-25T23:54:16.279Z,96721.28
2022-08-25T23:56:44.996Z,96724.34
2022-08-25T23:59:24.629Z,96721.72
